Time;durP1;ratioP1;P1;durP2;ratioP2;P2;SDS_P1;SDS_P2;PMS_P1;PMS_P2;Temp;Humidity;BMP_temperature;BMP_pressure;BME280_temperature;BME280_humidity;BME280_pressure;Samples;Min_cycle;Max_cycle;Signal;HPM_P1;HPM_P2
2022/04/03 00:00:15;;;;;;;0.30;0.20;;;0.30;99.90;;;;;;4993539;28;20857;-78
2022/04/03 00:02:42;;;;;;;0.30;0.30;;;0.30;99.90;;;;;;4993680;28;20448;-80
2022/04/03 00:05:10;;;;;;;0.30;0.20;;;0.30;99.90;;;;;;4993935;28;20434;-80
2022/04/03 00:07:37;;;;;;;0.30;0.30;;;0.40;99.90;;;;;;4993908;28;20455;-77
2022/04/03 00:10:05;;;;;;;0.30;0.30;;;0.40;99.90;;;;;;4993866;28;20471;-74
2022/04/03 00:12:31;;;;;;;0.30;0.30;;;0.30;99.90;;;;;;4993854;28;20467;-74
2022/04/03 00:14:58;;;;;;;0.30;0.30;;;0.30;99.90;;;;;;4993838;28;20537;-74
2022/04/03 00:17:25;;;;;;;0.30;0.30;;;0.30;99.90;;;;;;4993825;28;20448;-74
2022/04/03 00:19:52;;;;;;;0.47;0.47;;;0.30;99.90;;;;;;4993651;28;20463;-76
2022/04/03 00:22:20;;;;;;;0.40;0.40;;;0.30;99.90;;;;;;4993264;28;20480;-80
2022/04/03 00:24:46;;;;;;;0.83;0.50;;;0.20;99.90;;;;;;4992909;28;20423;-80
2022/04/03 00:27:13;;;;;;;0.30;0.30;;;0.20;99.90;;;;;;4992599;28;20949;-77
2022/04/03 00:29:40;;;;;;;0.30;0.30;;;0.20;99.90;;;;;;4993064;28;20471;-74
2022/04/03 00:32:08;;;;;;;0.30;0.30;;;0.30;99.90;;;;;;4992545;28;20956;-74
2022/04/03 00:34:34;;;;;;;0.30;0.20;;;0.30;99.90;;;;;;4992786;28;20452;-74
2022/04/03 00:37:01;;;;;;;0.30;0.30;;;0.20;99.90;;;;;;4992785;28;20448;-74
2022/04/03 00:39:29;;;;;;;0.53;0.53;;;0.20;99.90;;;;;;4992365;28;20464;-74
2022/04/03 00:41:57;;;;;;;0.40;0.40;;;0.30;99.90;;;;;;4993300;28;20448;-74
2022/04/03 00:44:24;;;;;;;0.40;0.40;;;0.20;99.90;;;;;;4992680;28;20451;-74
2022/04/03 00:46:52;;;;;;;0.30;0.30;;;0.20;99.90;;;;;;4995453;28;20452;-74
2022/04/03 00:49:19;;;;;;;0.87;0.80;;;0.20;99.90;;;;;;4995726;28;20463;-76
2022/04/03 00:51:45;;;;;;;0.50;0.50;;;0.20;99.90;;;;;;4995721;28;20811;-77
2022/04/03 00:54:12;;;;;;;0.40;0.40;;;0.20;99.90;;;;;;4995980;28;20453;-77
2022/04/03 00:56:41;;;;;;;0.30;0.30;;;0.20;99.90;;;;;;4995984;28;20452;-77
2022/04/03 00:59:09;;;;;;;0.87;0.87;;;0.20;99.90;;;;;;4995861;28;20456;-80
2022/04/03 01:01:36;;;;;;;0.40;0.40;;;0.20;99.90;;;;;;4995804;28;20487;-80
2022/04/03 01:04:03;;;;;;;0.40;0.40;;;0.20;99.90;;;;;;4995839;28;20454;-77
2022/04/03 01:06:31;;;;;;;0.30;0.30;;;0.20;99.90;;;;;;4996052;28;20449;-77
2022/04/03 01:08:58;;;;;;;0.30;0.30;;;0.10;99.90;;;;;;4995731;28;20422;-78
2022/04/03 01:11:25;;;;;;;0.97;0.97;;;0.10;99.90;;;;;;4995722;28;20444;-78
2022/04/03 01:13:54;;;;;;;0.30;0.30;;;0.10;99.90;;;;;;4995747;28;20433;-74
2022/04/03 01:16:21;;;;;;;0.50;0.40;;;0.10;99.90;;;;;;4995644;28;20452;-74
2022/04/03 01:18:48;;;;;;;0.30;0.20;;;0.10;99.90;;;;;;4995638;28;20419;-74
2022/04/03 01:21:18;;;;;;;0.30;0.30;;;0.10;99.90;;;;;;4995305;28;20849;-74
2022/04/03 01:24:19;;;;;;;0.30;0.20;;;0.20;99.90;;;;;;5090753;27;20555;-79
2022/04/03 01:26:47;;;;;;;0.30;0.30;;;0.20;99.90;;;;;;5090620;28;20934;-79
2022/04/03 01:29:15;;;;;;;0.40;0.40;;;0.20;99.90;;;;;;5090739;28;20464;-78
2022/04/03 01:31:42;;;;;;;0.30;0.30;;;0.10;99.90;;;;;;5090827;28;20470;-76
2022/04/03 01:34:09;;;;;;;0.80;0.50;;;0.10;99.90;;;;;;5090724;28;20476;-77
2022/04/03 01:36:35;;;;;;;0.30;0.30;;;0.20;99.90;;;;;;5090771;28;20452;-79
2022/04/03 01:39:02;;;;;;;0.30;0.30;;;0.20;99.90;;;;;;5090587;28;20448;-79
2022/04/03 01:41:29;;;;;;;0.73;0.70;;;0.20;99.90;;;;;;5090699;28;20502;-76
2022/04/03 01:43:57;;;;;;;0.40;0.40;;;0.20;99.90;;;;;;5090641;28;20421;-74
2022/04/03 01:46:24;;;;;;;0.30;0.30;;;0.10;99.90;;;;;;5090211;28;20940;-74
2022/04/03 01:48:51;;;;;;;0.90;0.90;;;0.10;99.90;;;;;;5090403;28;20452;-74
2022/04/03 01:51:18;;;;;;;0.37;0.37;;;0.10;99.90;;;;;;5090469;28;20896;-73
2022/04/03 01:53:44;;;;;;;0.30;0.30;;;0.20;99.90;;;;;;5089994;28;20465;-74
2022/04/03 01:56:11;;;;;;;0.60;0.60;;;0.20;99.90;;;;;;5090326;28;20817;-73
2022/04/03 01:58:38;;;;;;;0.30;0.30;;;0.20;99.90;;;;;;5090301;28;20444;-73
2022/04/03 02:01:06;;;;;;;0.30;0.30;;;0.20;99.90;;;;;;5090134;28;20475;-73
2022/04/03 02:03:33;;;;;;;1.27;0.50;;;0.20;99.90;;;;;;5089888;28;20922;-74
2022/04/03 02:06:00;;;;;;;1.37;1.37;;;0.20;99.90;;;;;;5090139;28;20448;-74
2022/04/03 02:08:27;;;;;;;0.30;0.30;;;0.20;99.90;;;;;;5090112;28;20444;-74
2022/04/03 02:10:54;;;;;;;0.40;0.40;;;0.20;99.90;;;;;;5089975;28;20463;-73
2022/04/03 02:13:21;;;;;;;0.30;0.30;;;0.20;99.90;;;;;;5089635;28;20476;-73
2022/04/03 02:15:48;;;;;;;0.80;0.63;;;0.20;99.90;;;;;;5089624;28;20982;-74
2022/04/03 02:18:17;;;;;;;1.50;1.50;;;0.20;99.90;;;;;;5089930;28;20444;-73
2022/04/03 02:20:44;;;;;;;0.87;0.87;;;0.10;99.90;;;;;;5089772;28;20504;-74
2022/04/03 02:23:11;;;;;;;0.30;0.30;;;0.10;99.90;;;;;;5089504;28;20476;-74
2022/04/03 02:25:38;;;;;;;0.30;0.30;;;0.10;99.90;;;;;;5089489;28;20448;-74
2022/04/03 02:28:05;;;;;;;0.30;0.30;;;0.10;99.90;;;;;;5089408;28;20978;-74
2022/04/03 02:30:32;;;;;;;0.33;0.33;;;0.20;99.90;;;;;;5089578;28;20472;-74
2022/04/03 02:32:58;;;;;;;0.40;0.40;;;0.20;99.90;;;;;;5089540;28;20515;-74
2022/04/03 02:35:27;;;;;;;0.63;0.63;;;0.20;99.90;;;;;;5076646;28;20934;-73
2022/04/03 02:37:54;;;;;;;0.30;0.30;;;0.30;99.90;;;;;;5075744;28;20936;-73
2022/04/03 02:40:21;;;;;;;0.40;0.40;;;0.30;99.90;;;;;;5075652;28;20519;-73
2022/04/03 02:42:47;;;;;;;0.30;0.30;;;0.30;99.90;;;;;;5075703;28;20945;-73
2022/04/03 02:45:15;;;;;;;0.40;0.40;;;0.30;99.90;;;;;;5075944;28;20449;-73
2022/04/03 02:47:47;;;;;;;0.57;0.40;;;0.30;99.90;;;;;;5075914;28;20524;-73
2022/04/03 02:50:16;;;;;;;0.37;0.37;;;0.30;99.90;;;;;;5075508;28;20476;-73
2022/04/03 02:52:44;;;;;;;0.50;0.50;;;0.30;99.90;;;;;;5075380;28;21086;-73
2022/04/03 02:55:11;;;;;;;0.67;0.67;;;0.30;99.90;;;;;;5075785;28;20453;-73
2022/04/03 02:57:37;;;;;;;0.30;0.30;;;0.30;99.90;;;;;;5075721;28;20496;-73
2022/04/03 03:00:06;;;;;;;0.30;0.30;;;0.30;99.90;;;;;;5075621;28;20471;-75
2022/04/03 03:02:33;;;;;;;0.30;0.30;;;0.30;99.90;;;;;;5075347;28;20936;-77
2022/04/03 03:04:59;;;;;;;0.30;0.30;;;0.30;99.90;;;;;;5075316;28;20452;-76
2022/04/03 03:07:36;;;;;;;0.40;0.40;;;0.30;99.90;;;;;;5075485;28;20452;-76
2022/04/03 03:10:05;;;;;;;0.40;0.40;;;0.30;99.90;;;;;;5075495;28;20487;-79
2022/04/03 03:12:32;;;;;;;0.30;0.23;;;0.20;99.90;;;;;;5075084;28;20448;-79
2022/04/03 03:14:59;;;;;;;0.30;0.30;;;0.20;99.90;;;;;;5075368;28;20448;-79
2022/04/03 03:17:26;;;;;;;0.30;0.27;;;0.30;99.90;;;;;;5075332;28;20444;-79
2022/04/03 03:19:53;;;;;;;0.50;0.50;;;0.30;99.90;;;;;;5075270;28;20500;-76
2022/04/03 03:22:19;;;;;;;0.60;0.60;;;0.30;99.90;;;;;;5074993;28;20481;-76
2022/04/03 03:24:46;;;;;;;0.33;0.33;;;0.30;99.90;;;;;;5076041;28;20743;-76
2022/04/03 03:27:14;;;;;;;0.37;0.37;;;0.30;99.90;;;;;;5075146;28;20441;-77
2022/04/03 03:29:41;;;;;;;0.30;0.30;;;0.30;99.90;;;;;;5075055;28;20465;-77
2022/04/03 03:32:09;;;;;;;0.40;0.40;;;0.30;99.90;;;;;;5075097;28;20456;-77
2022/04/03 03:34:36;;;;;;;0.30;0.20;;;0.30;99.90;;;;;;5074912;28;20480;-78
2022/04/03 03:37:03;;;;;;;0.57;0.40;;;0.30;99.90;;;;;;5074943;28;20449;-77
2022/04/03 03:39:30;;;;;;;0.93;0.83;;;0.30;99.90;;;;;;5075400;28;20798;-77
2022/04/03 03:41:57;;;;;;;1.37;1.27;;;0.30;99.90;;;;;;5074814;28;20473;-78
2022/04/03 03:44:25;;;;;;;0.30;0.30;;;0.20;99.90;;;;;;5074784;28;20437;-78
2022/04/03 03:46:52;;;;;;;0.30;0.20;;;0.20;99.90;;;;;;5073784;28;20434;-78
2022/04/03 03:49:19;;;;;;;0.30;0.30;;;0.20;99.90;;;;;;5074328;28;20468;-74
2022/04/03 03:51:46;;;;;;;0.30;0.30;;;0.30;99.90;;;;;;5074631;28;20544;-78
2022/04/03 03:54:13;;;;;;;0.30;0.30;;;0.30;99.90;;;;;;5074233;28;20571;-78
2022/04/03 03:56:40;;;;;;;0.93;0.93;;;0.30;99.90;;;;;;5074573;28;20452;-79
2022/04/03 03:59:07;;;;;;;0.30;0.30;;;0.30;99.90;;;;;;5074432;28;20448;-73
2022/04/03 04:01:35;;;;;;;0.30;0.20;;;0.30;99.90;;;;;;5074430;28;20448;-73
2022/04/03 04:04:02;;;;;;;0.30;0.30;;;0.30;99.90;;;;;;5074358;28;20472;-78
2022/04/03 04:06:29;;;;;;;0.50;0.40;;;0.30;99.90;;;;;;5074325;28;20445;-73
2022/04/03 04:08:56;;;;;;;0.40;0.40;;;0.20;99.90;;;;;;5073883;28;20940;-73
2022/04/03 04:11:22;;;;;;;0.30;0.30;;;0.30;99.90;;;;;;5074242;28;20445;-73
2022/04/03 04:13:49;;;;;;;0.30;0.30;;;0.30;99.90;;;;;;5074119;28;20451;-73
2022/04/03 04:16:16;;;;;;;0.90;0.90;;;0.30;99.90;;;;;;5074149;28;20444;-74
2022/04/03 04:18:44;;;;;;;0.40;0.40;;;0.30;99.90;;;;;;5074107;28;20445;-73
2022/04/03 04:21:12;;;;;;;0.30;0.30;;;0.30;99.90;;;;;;5074003;28;20507;-73
2022/04/03 04:23:38;;;;;;;0.30;0.30;;;0.30;99.90;;;;;;5073487;28;20485;-73
2022/04/03 04:26:06;;;;;;;0.30;0.30;;;0.30;99.90;;;;;;5073959;28;20453;-74
2022/04/03 04:28:34;;;;;;;0.30;0.30;;;0.20;99.90;;;;;;5073886;28;20445;-73
2022/04/03 04:31:01;;;;;;;0.40;0.40;;;0.20;99.90;;;;;;5073845;28;20488;-76
2022/04/03 04:33:28;;;;;;;0.40;0.40;;;0.20;99.90;;;;;;5073797;28;20473;-76
2022/04/03 04:35:56;;;;;;;0.77;0.50;;;0.20;99.90;;;;;;5073794;28;20452;-76
2022/04/03 04:38:22;;;;;;;0.30;0.30;;;0.20;99.90;;;;;;5073541;28;20452;-73
2022/04/03 04:40:49;;;;;;;0.70;0.50;;;0.20;99.90;;;;;;5073708;28;20475;-73
2022/04/03 04:43:16;;;;;;;1.27;1.27;;;0.20;99.90;;;;;;5073415;28;20963;-74
2022/04/03 04:45:43;;;;;;;0.30;0.30;;;0.20;99.90;;;;;;5073682;28;20419;-74
2022/04/03 04:48:10;;;;;;;0.30;0.20;;;0.20;99.90;;;;;;5073654;28;20448;-75
2022/04/03 04:50:36;;;;;;;0.60;0.40;;;0.20;99.90;;;;;;5073530;28;20452;-76
2022/04/03 04:53:05;;;;;;;0.80;0.80;;;0.20;99.90;;;;;;5073483;28;20472;-76
2022/04/03 04:55:32;;;;;;;0.30;0.27;;;0.20;99.90;;;;;;5073227;28;20979;-76
2022/04/03 04:57:59;;;;;;;0.30;0.20;;;0.20;99.90;;;;;;5073331;28;20448;-76
2022/04/03 05:00:28;;;;;;;0.30;0.30;;;0.20;99.90;;;;;;5073430;28;20480;-76
2022/04/03 05:02:56;;;;;;;2.20;1.20;;;0.20;99.90;;;;;;5073465;28;20518;-76
2022/04/03 05:05:24;;;;;;;0.30;0.30;;;0.20;99.90;;;;;;5073433;28;20451;-78
2022/04/03 05:07:54;;;;;;;0.30;0.20;;;0.10;99.90;;;;;;5073412;28;20456;-78
2022/04/03 05:10:24;;;;;;;0.30;0.30;;;0.10;99.90;;;;;;5073376;28;20456;-73
2022/04/03 05:12:51;;;;;;;0.40;0.40;;;0.10;99.90;;;;;;5073084;28;20415;-77
2022/04/03 05:15:18;;;;;;;0.40;0.40;;;0.10;99.90;;;;;;5073239;28;20482;-77
2022/04/03 05:17:46;;;;;;;0.30;0.30;;;0.00;99.90;;;;;;5073864;28;20445;-77
2022/04/03 05:20:15;;;;;;;0.30;0.30;;;0.00;99.90;;;;;;5073206;28;20566;-76
2022/04/03 05:22:43;;;;;;;0.30;0.30;;;0.00;99.90;;;;;;5072812;28;20846;-76
2022/04/03 05:25:11;;;;;;;1.20;1.20;;;0.00;99.90;;;;;;5073212;28;20449;-78
2022/04/03 05:27:39;;;;;;;0.30;0.30;;;0.00;99.90;;;;;;5072857;28;20548;-78
2022/04/03 05:30:07;;;;;;;0.30;0.30;;;-0.10;99.90;;;;;;5073124;28;20469;-74
2022/04/03 05:32:35;;;;;;;0.40;0.40;;;0.00;99.90;;;;;;5073163;28;20444;-73
2022/04/03 05:35:02;;;;;;;0.30;0.30;;;0.00;99.90;;;;;;5073117;28;20534;-78
2022/04/03 05:37:29;;;;;;;0.30;0.30;;;0.10;99.90;;;;;;5072797;28;20963;-78
2022/04/03 05:39:56;;;;;;;0.30;0.20;;;0.00;99.90;;;;;;5072759;28;20469;-74
2022/04/03 05:42:23;;;;;;;0.40;0.40;;;0.00;99.90;;;;;;5073040;28;20449;-74
2022/04/03 05:44:51;;;;;;;0.30;0.30;;;0.10;99.90;;;;;;5073015;28;20452;-73
2022/04/03 05:47:18;;;;;;;0.30;0.30;;;0.10;99.90;;;;;;5072997;28;20444;-73
2022/04/03 05:49:45;;;;;;;0.67;0.67;;;0.10;99.90;;;;;;5072892;28;20469;-75
2022/04/03 05:52:12;;;;;;;0.30;0.30;;;0.10;99.90;;;;;;5072990;28;20449;-76
2022/04/03 05:54:39;;;;;;;0.30;0.30;;;0.10;99.90;;;;;;5072866;28;20475;-73
2022/04/03 05:57:07;;;;;;;0.40;0.40;;;0.20;99.90;;;;;;5072612;28;20441;-73
2022/04/03 05:59:34;;;;;;;0.30;0.30;;;0.10;99.90;;;;;;5072846;28;20469;-76
2022/04/03 06:02:03;;;;;;;0.30;0.30;;;0.10;99.90;;;;;;5072906;28;20551;-77
2022/04/03 06:04:30;;;;;;;0.47;0.47;;;0.20;99.90;;;;;;5072815;28;20444;-77
2022/04/03 06:06:57;;;;;;;0.60;0.60;;;0.20;99.90;;;;;;5072472;28;20473;-77
2022/04/03 06:09:23;;;;;;;0.30;0.20;;;0.20;99.90;;;;;;5073857;28;20439;-77
2022/04/03 06:11:51;;;;;;;0.30;0.30;;;0.20;99.90;;;;;;5076245;28;20962;-77
2022/04/03 06:14:18;;;;;;;0.30;0.30;;;0.30;99.90;;;;;;5076086;28;21045;-77
2022/04/03 06:16:45;;;;;;;0.33;0.33;;;0.30;99.90;;;;;;5076149;28;20468;-77
2022/04/03 06:19:13;;;;;;;0.30;0.30;;;0.30;99.90;;;;;;5076347;28;20471;-73
2022/04/03 06:21:39;;;;;;;0.50;0.50;;;0.30;99.90;;;;;;5076353;28;20447;-77
2022/04/03 06:24:06;;;;;;;0.30;0.30;;;0.30;99.90;;;;;;5075885;28;20995;-77
2022/04/03 06:26:33;;;;;;;0.40;0.40;;;0.30;99.90;;;;;;5076383;28;20476;-78
2022/04/03 06:29:00;;;;;;;0.30;0.20;;;0.40;99.90;;;;;;5075920;28;20939;-79
2022/04/03 06:31:26;;;;;;;0.30;0.30;;;0.40;99.90;;;;;;5076206;28;20456;-78
2022/04/03 06:33:53;;;;;;;0.40;0.40;;;0.50;99.90;;;;;;5076120;28;20476;-73
2022/04/03 06:36:21;;;;;;;0.30;0.30;;;0.50;99.90;;;;;;5076190;28;20510;-73
2022/04/03 06:38:48;;;;;;;0.30;0.30;;;0.60;99.90;;;;;;5075776;28;20433;-73
2022/04/03 06:41:17;;;;;;;0.30;0.30;;;0.60;99.90;;;;;;5076020;28;20473;-73
2022/04/03 06:43:44;;;;;;;0.30;0.30;;;0.60;99.90;;;;;;5075783;28;20901;-73
2022/04/03 06:46:12;;;;;;;0.30;0.30;;;0.70;99.90;;;;;;5075727;28;20434;-73
2022/04/03 06:48:40;;;;;;;0.30;0.30;;;0.70;99.90;;;;;;5075851;28;20453;-72
2022/04/03 06:51:07;;;;;;;1.13;0.90;;;0.80;99.90;;;;;;5075690;28;20472;-73
2022/04/03 06:53:35;;;;;;;0.50;0.50;;;0.80;99.90;;;;;;5075651;28;20449;-78
2022/04/03 06:56:01;;;;;;;0.30;0.30;;;0.80;99.90;;;;;;5075868;28;20429;-78
2022/04/03 06:58:28;;;;;;;0.40;0.37;;;0.80;99.90;;;;;;5075787;28;20425;-78
2022/04/03 07:00:55;;;;;;;0.30;0.30;;;0.80;99.90;;;;;;5075854;28;20465;-78
2022/04/03 07:03:22;;;;;;;0.30;0.30;;;0.80;99.90;;;;;;5075691;28;20437;-78
2022/04/03 07:05:49;;;;;;;0.30;0.30;;;0.80;99.90;;;;;;5075479;28;20441;-78
2022/04/03 07:08:16;;;;;;;0.30;0.30;;;0.80;99.90;;;;;;5075581;28;20404;-78
2022/04/03 07:10:44;;;;;;;0.30;0.30;;;0.90;99.90;;;;;;5075366;28;20461;-79
2022/04/03 07:13:12;;;;;;;0.30;0.30;;;0.90;99.90;;;;;;5075431;28;20429;-78
2022/04/03 07:15:38;;;;;;;0.30;0.30;;;0.90;99.90;;;;;;5075327;28;20815;-79
2022/04/03 07:18:05;;;;;;;0.30;0.30;;;0.90;99.90;;;;;;5075386;28;20448;-79
2022/04/03 07:20:32;;;;;;;0.30;0.30;;;0.90;99.90;;;;;;5075118;28;20468;-78
2022/04/03 07:22:59;;;;;;;0.30;0.30;;;0.90;99.90;;;;;;5074844;28;20476;-79
2022/04/03 07:25:26;;;;;;;0.40;0.40;;;1.00;99.90;;;;;;5075230;28;20800;-79
2022/04/03 07:27:54;;;;;;;0.40;0.40;;;1.00;99.90;;;;;;5074857;28;20940;-79
2022/04/03 07:30:20;;;;;;;1.13;1.10;;;1.00;99.90;;;;;;5075047;28;20472;-79
2022/04/03 07:32:47;;;;;;;0.40;0.40;;;1.00;99.90;;;;;;5074736;28;20944;-78
2022/04/03 07:35:14;;;;;;;0.30;0.30;;;1.00;99.90;;;;;;5074965;28;20484;-78
2022/04/03 07:37:41;;;;;;;0.30;0.30;;;1.00;99.90;;;;;;5074653;28;20956;-78
2022/04/03 07:40:09;;;;;;;0.40;0.40;;;1.10;99.90;;;;;;5074847;28;20465;-79
2022/04/03 07:42:36;;;;;;;0.80;0.50;;;1.00;99.90;;;;;;5074867;28;20812;-78
2022/04/03 07:45:05;;;;;;;1.23;0.80;;;1.00;99.90;;;;;;5074792;28;20441;-78
2022/04/03 07:47:32;;;;;;;0.50;0.50;;;1.00;99.90;;;;;;5074773;28;20428;-79
2022/04/03 07:49:59;;;;;;;0.83;0.43;;;1.00;99.90;;;;;;5074350;28;20836;-79
2022/04/03 07:52:26;;;;;;;0.40;0.40;;;1.10;99.90;;;;;;5074617;28;20476;-79
2022/04/03 07:54:53;;;;;;;4.33;1.43;;;1.20;99.90;;;;;;5074565;28;20477;-79
2022/04/03 07:57:20;;;;;;;0.60;0.60;;;1.30;99.90;;;;;;5074531;28;20449;-79
2022/04/03 07:59:47;;;;;;;0.30;0.30;;;1.40;99.90;;;;;;5074142;28;20946;-79
2022/04/03 08:02:16;;;;;;;0.30;0.30;;;1.50;99.90;;;;;;5074303;28;20429;-78
2022/04/03 08:04:42;;;;;;;0.40;0.40;;;1.50;99.90;;;;;;5075191;28;20444;-78
2022/04/03 08:07:09;;;;;;;0.70;0.70;;;1.50;99.90;;;;;;5074547;28;20826;-79
2022/04/03 08:09:36;;;;;;;0.30;0.30;;;1.50;99.90;;;;;;5074324;28;20465;-79
2022/04/03 08:12:03;;;;;;;0.30;0.30;;;1.70;99.90;;;;;;5074357;28;20452;-79
2022/04/03 08:14:29;;;;;;;0.30;0.30;;;1.80;99.90;;;;;;5073944;28;21003;-79
2022/04/03 08:16:56;;;;;;;0.30;0.30;;;1.90;99.90;;;;;;5074256;28;20444;-78
2022/04/03 08:19:24;;;;;;;0.30;0.30;;;2.10;99.90;;;;;;5074183;28;20507;-78
2022/04/03 08:21:51;;;;;;;0.40;0.40;;;2.20;99.90;;;;;;5073593;28;20471;-78
2022/04/03 08:24:18;;;;;;;0.30;0.30;;;2.20;99.90;;;;;;5074102;28;20452;-78
2022/04/03 08:26:45;;;;;;;0.30;0.20;;;2.20;99.90;;;;;;5074094;28;20448;-78
2022/04/03 08:29:11;;;;;;;0.30;0.20;;;2.30;99.90;;;;;;5073964;28;20445;-78
2022/04/03 08:31:38;;;;;;;0.53;0.53;;;2.40;99.90;;;;;;5073528;28;20441;-79
2022/04/03 08:34:05;;;;;;;0.40;0.40;;;2.50;99.90;;;;;;5073564;28;20795;-79
2022/04/03 08:36:33;;;;;;;0.40;0.40;;;2.40;99.90;;;;;;5073895;28;20432;-79
2022/04/03 08:38:59;;;;;;;0.47;0.47;;;2.40;99.90;;;;;;5073808;28;20455;-79
2022/04/03 08:41:28;;;;;;;0.40;0.40;;;2.30;99.90;;;;;;5073834;28;20440;-78
2022/04/03 08:43:55;;;;;;;0.63;0.60;;;2.10;99.90;;;;;;5073392;28;20959;-78
2022/04/03 08:46:24;;;;;;;0.50;0.50;;;2.10;99.90;;;;;;5073389;28;20441;-78
2022/04/03 08:48:52;;;;;;;0.40;0.40;;;2.20;99.90;;;;;;5074190;28;20445;-79
2022/04/03 08:51:19;;;;;;;0.43;0.43;;;2.30;99.90;;;;;;5073607;28;20449;-78
2022/04/03 08:53:48;;;;;;;0.30;0.30;;;2.50;99.90;;;;;;5073626;28;20456;-78
2022/04/03 08:56:15;;;;;;;0.30;0.30;;;2.50;99.90;;;;;;5073484;28;20477;-79
2022/04/03 08:58:42;;;;;;;0.40;0.40;;;2.40;99.90;;;;;;5073530;28;20444;-79
2022/04/03 09:01:09;;;;;;;0.70;0.67;;;2.20;99.90;;;;;;5073485;28;20471;-83
2022/04/03 09:03:35;;;;;;;0.40;0.40;;;2.10;99.90;;;;;;5073511;28;20445;-83
2022/04/03 09:06:21;;;;;;;0.67;0.67;;;2.20;99.90;;;;;;5073428;28;20937;-79
2022/04/03 09:08:49;;;;;;;0.40;0.30;;;2.20;99.90;;;;;;5073883;28;20505;-80
2022/04/03 09:11:17;;;;;;;0.30;0.30;;;2.30;99.90;;;;;;5073066;28;20488;-80
2022/04/03 09:13:44;;;;;;;0.53;0.53;;;2.50;99.90;;;;;;5073381;28;20421;-79
2022/04/03 09:16:12;;;;;;;1.07;0.97;;;3.10;99.90;;;;;;5073255;28;20460;-81
2022/04/03 09:18:49;;;;;;;1.13;0.60;;;4.10;99.90;;;;;;5073250;28;20444;-73
2022/04/03 09:21:21;;;;;;;0.30;0.30;;;5.00;99.90;;;;;;5073302;28;20831;-79
2022/04/03 09:24:00;;;;;;;0.30;0.20;;;5.70;99.90;;;;;;5072847;28;20490;-74
2022/04/03 09:26:27;;;;;;;0.30;0.30;;;6.20;99.90;;;;;;5073325;28;20429;-82
2022/04/03 09:29:07;;;;;;;0.90;0.90;;;6.50;99.90;;;;;;5073118;28;20452;-79
2022/04/03 09:31:34;;;;;;;0.30;0.20;;;6.40;99.90;;;;;;5072926;28;20838;-76
2022/04/03 09:34:01;;;;;;;0.40;0.30;;;6.00;99.90;;;;;;5073164;28;20445;-76
2022/04/03 09:36:30;;;;;;;0.30;0.30;;;5.50;99.90;;;;;;5072990;28;20503;-75
2022/04/03 09:39:07;;;;;;;0.60;0.60;;;5.00;99.90;;;;;;5073063;28;20899;-78
2022/04/03 09:41:35;;;;;;;0.30;0.30;;;4.50;99.90;;;;;;5077810;28;20429;-84
2022/04/03 09:44:17;;;;;;;0.30;0.30;;;4.20;99.90;;;;;;5091348;28;20791;-84
2022/04/03 09:46:43;;;;;;;1.20;0.83;;;3.90;99.90;;;;;;5077077;28;20908;-78
2022/04/03 09:49:23;;;;;;;0.30;0.30;;;3.70;99.90;;;;;;5077171;28;20445;-73
2022/04/03 09:51:50;;;;;;;0.30;0.30;;;3.90;99.90;;;;;;5076733;28;20432;-78
2022/04/03 09:54:20;;;;;;;0.30;0.20;;;5.40;99.90;;;;;;5076980;28;20444;-74
2022/04/03 09:56:46;;;;;;;0.60;0.60;;;7.00;99.90;;;;;;5076658;28;20465;-74
2022/04/03 09:59:13;;;;;;;0.30;0.30;;;7.70;99.90;;;;;;5076821;28;20472;-75
2022/04/03 10:01:41;;;;;;;0.33;0.30;;;7.60;99.90;;;;;;5077425;28;20766;-83
2022/04/03 10:04:09;;;;;;;0.43;0.40;;;7.10;99.90;;;;;;5077259;28;20452;-84
2022/04/03 10:06:38;;;;;;;0.83;0.60;;;6.50;99.90;;;;;;5077212;28;20803;-79
2022/04/03 10:09:07;;;;;;;0.40;0.33;;;6.00;99.90;;;;;;5076320;28;20445;-78
2022/04/03 10:11:35;;;;;;;0.40;0.30;;;5.80;99.90;;;;;;5077730;28;20433;-83
2022/04/03 10:14:02;;;;;;;0.30;0.30;;;5.50;99.90;;;;;;5077657;28;20978;-84
2022/04/03 10:16:29;;;;;;;0.30;0.30;;;5.00;99.90;;;;;;5078189;28;20475;-84
2022/04/03 10:18:58;;;;;;;0.50;0.47;;;4.90;99.90;;;;;;5078109;28;20441;-84
2022/04/03 10:21:30;;;;;;;0.40;0.40;;;4.80;99.90;;;;;;5077559;28;20436;-84
2022/04/03 10:24:02;;;;;;;0.30;0.30;;;4.80;99.90;;;;;;5076688;28;20488;-84
2022/04/03 10:26:33;;;;;;;0.33;0.33;;;4.60;99.90;;;;;;5076810;28;20432;-80
2022/04/03 10:29:02;;;;;;;0.50;0.40;;;4.50;99.90;;;;;;5076351;28;20433;-80
2022/04/03 10:31:29;;;;;;;0.30;0.30;;;4.20;99.90;;;;;;5076033;28;20436;-80
2022/04/03 10:33:56;;;;;;;0.30;0.20;;;4.10;99.90;;;;;;5076223;28;20444;-80
2022/04/03 10:36:27;;;;;;;0.30;0.30;;;4.00;99.90;;;;;;5076129;28;20825;-81
2022/04/03 10:39:00;;;;;;;0.30;0.30;;;3.90;99.90;;;;;;5076027;28;20444;-80
2022/04/03 10:41:29;;;;;;;0.30;0.30;;;3.60;99.90;;;;;;5076196;28;20849;-79
2022/04/03 10:44:15;;;;;;;0.30;0.20;;;3.50;99.90;;;;;;5075827;28;20912;-80
2022/04/03 10:47:19;;;;;;;0.30;0.30;;;3.30;99.90;;;;;;5075980;28;20448;-79
2022/04/03 10:49:49;;;;;;;0.50;0.50;;;3.20;99.90;;;;;;5075835;28;20464;-79
2022/04/03 10:52:25;;;;;;;0.50;0.40;;;3.00;99.90;;;;;;5075954;28;20433;-79
2022/04/03 10:54:54;;;;;;;0.30;0.20;;;2.90;99.90;;;;;;5075344;28;20447;-79
2022/04/03 10:57:34;;;;;;;0.30;0.30;;;2.80;99.90;;;;;;5075879;28;20429;-79
2022/04/03 11:00:30;;;;;;;0.30;0.30;;;2.70;99.90;;;;;;5075408;28;20476;-79
2022/04/03 11:03:01;;;;;;;0.30;0.20;;;2.70;99.90;;;;;;5075696;28;20441;-79
2022/04/03 11:05:45;;;;;;;0.30;0.20;;;2.70;99.90;;;;;;5075649;28;20436;-79
2022/04/03 11:08:19;;;;;;;0.30;0.20;;;2.70;99.90;;;;;;5075363;28;20429;-79
2022/04/03 11:10:49;;;;;;;0.30;0.30;;;2.80;99.90;;;;;;5075783;28;20464;-79
2022/04/03 11:13:16;;;;;;;0.37;0.33;;;2.80;99.90;;;;;;5075573;28;20437;-79
2022/04/03 11:15:55;;;;;;;0.30;0.30;;;2.90;99.90;;;;;;5075424;28;20465;-80
2022/04/03 11:18:28;;;;;;;0.30;0.20;;;2.90;99.90;;;;;;5075145;28;20433;-81
2022/04/03 11:21:09;;;;;;;0.30;0.27;;;2.90;99.90;;;;;;5075288;28;20476;-80
2022/04/03 11:23:37;;;;;;;0.33;0.33;;;2.80;99.90;;;;;;5075001;28;20480;-80
2022/04/03 11:26:05;;;;;;;0.30;0.30;;;2.90;99.90;;;;;;5075309;28;20448;-80
2022/04/03 11:28:34;;;;;;;0.30;0.20;;;2.90;99.90;;;;;;5074977;28;20433;-80
2022/04/03 11:31:03;;;;;;;0.40;0.30;;;2.80;99.90;;;;;;5075107;28;20483;-79
2022/04/03 11:33:31;;;;;;;0.30;0.30;;;2.60;99.90;;;;;;5075221;28;20472;-79
2022/04/03 11:36:03;;;;;;;1.33;1.33;;;2.50;99.90;;;;;;5075039;28;20569;-79
2022/04/03 11:38:35;;;;;;;0.30;0.30;;;2.40;99.90;;;;;;5075067;28;20437;-80
2022/04/03 11:41:04;;;;;;;0.90;0.90;;;2.30;99.90;;;;;;5074911;28;20473;-80
2022/04/03 11:43:30;;;;;;;0.30;0.30;;;2.30;99.90;;;;;;5074666;28;20437;-80
2022/04/03 11:45:59;;;;;;;0.30;0.30;;;2.30;99.90;;;;;;5074558;28;20959;-80
2022/04/03 11:48:30;;;;;;;2.10;1.17;;;2.20;99.90;;;;;;5074807;28;20456;-80
2022/04/03 11:51:05;;;;;;;0.30;0.30;;;2.10;99.90;;;;;;5074728;28;20464;-80
2022/04/03 11:53:32;;;;;;;0.83;0.47;;;2.10;99.90;;;;;;5074389;28;20433;-80
2022/04/03 11:56:06;;;;;;;0.40;0.40;;;2.20;99.90;;;;;;5074322;28;20492;-80
2022/04/03 11:58:36;;;;;;;0.30;0.30;;;2.40;99.90;;;;;;5074731;28;20437;-81
2022/04/03 12:01:02;;;;;;;0.57;0.57;;;2.60;99.90;;;;;;5074613;28;20469;-81
2022/04/03 12:03:31;;;;;;;0.30;0.30;;;2.80;99.90;;;;;;5074807;28;20433;-80
2022/04/03 12:06:14;;;;;;;0.40;0.40;;;2.90;99.90;;;;;;5074188;28;20432;-81
2022/04/03 12:08:42;;;;;;;0.30;0.20;;;3.10;99.90;;;;;;5074165;28;20437;-80
2022/04/03 12:11:20;;;;;;;0.73;0.73;;;3.20;99.90;;;;;;5074828;28;20468;-79
2022/04/03 12:13:46;;;;;;;0.30;0.30;;;3.10;99.90;;;;;;5074364;28;20786;-80
2022/04/03 12:16:18;;;;;;;1.47;1.37;;;3.20;99.90;;;;;;5074191;28;20480;-79
2022/04/03 12:18:57;;;;;;;1.33;0.80;;;3.20;99.90;;;;;;5075256;28;20437;-79
2022/04/03 12:21:37;;;;;;;0.30;0.20;;;3.30;99.90;;;;;;5074167;28;20440;-79
2022/04/03 12:24:05;;;;;;;0.30;0.30;;;3.50;99.90;;;;;;5073694;28;20818;-78
2022/04/03 12:26:33;;;;;;;0.33;0.27;;;3.60;99.90;;;;;;5074001;28;20429;-72
2022/04/03 12:29:00;;;;;;;0.30;0.27;;;3.50;99.90;;;;;;5074032;28;20441;-73
2022/04/03 12:31:28;;;;;;;0.30;0.20;;;3.50;99.90;;;;;;5074016;28;20479;-72
2022/04/03 12:34:06;;;;;;;0.30;0.20;;;3.50;99.90;;;;;;5073970;28;20429;-73
2022/04/03 12:36:42;;;;;;;1.47;1.37;;;3.50;99.90;;;;;;5073770;28;20465;-73
2022/04/03 12:39:35;;;;;;;0.30;0.30;;;3.40;99.90;;;;;;5073853;28;20433;-79
2022/04/03 12:42:26;;;;;;;0.30;0.30;;;3.20;99.90;;;;;;5073860;28;20539;-73
2022/04/03 12:44:56;;;;;;;0.30;0.30;;;3.00;99.90;;;;;;5073843;28;20433;-73
2022/04/03 12:47:30;;;;;;;0.30;0.20;;;2.80;99.90;;;;;;5073734;28;20440;-73
2022/04/03 12:50:13;;;;;;;0.57;0.43;;;2.70;99.90;;;;;;5073709;28;20465;-76
2022/04/03 12:52:42;;;;;;;0.70;0.70;;;2.60;99.90;;;;;;5073441;28;20429;-74
2022/04/03 12:55:35;;;;;;;0.30;0.30;;;2.60;99.90;;;;;;5073681;28;20440;-73
2022/04/03 12:58:25;;;;;;;0.90;0.90;;;2.70;99.90;;;;;;5073582;28;20444;-73
2022/04/03 13:00:55;;;;;;;0.40;0.40;;;2.70;99.90;;;;;;5073483;28;20465;-73
2022/04/03 13:03:26;;;;;;;0.30;0.20;;;2.70;99.90;;;;;;5073956;28;20908;-73
2022/04/03 13:05:56;;;;;;;0.40;0.30;;;2.70;99.90;;;;;;5073485;28;20512;-73